sensor_id;sensor_type;location;lat;lon;timestamp;pressure;altitude;pressure_sealevel;temperature;humidity
60489;BME280;46331;49.252;8.904;2023-03-04T00:00:16;100404.66;;;-1.31;81.40
60489;BME280;46331;49.252;8.904;2023-03-04T00:00:57;100409.31;;;-1.34;81.16
60489;BME280;46331;49.252;8.904;2023-03-04T00:01:38;100409.44;;;-1.36;81.45
60489;BME280;46331;49.252;8.904;2023-03-04T00:02:18;100411.25;;;-1.36;81.28
60489;BME280;46331;49.252;8.904;2023-03-04T00:02:59;100414.78;;;-1.37;81.89
60489;BME280;46331;49.252;8.904;2023-03-04T00:03:39;100418.53;;;-1.40;81.98
60489;BME280;46331;49.252;8.904;2023-03-04T00:04:20;100402.78;;;-1.38;82.13
60489;BME280;46331;49.252;8.904;2023-03-04T00:05:00;100415.78;;;-1.38;81.93
60489;BME280;46331;49.252;8.904;2023-03-04T00:05:42;100415.06;;;-1.40;81.75
60489;BME280;46331;49.252;8.904;2023-03-04T00:06:23;100417.28;;;-1.46;81.81
60489;BME280;46331;49.252;8.904;2023-03-04T00:07:03;100418.25;;;-1.47;82.52
60489;BME280;46331;49.252;8.904;2023-03-04T00:07:44;100416.63;;;-1.48;82.21
60489;BME280;46331;49.252;8.904;2023-03-04T00:08:24;100407.84;;;-1.47;82.45
60489;BME280;46331;49.252;8.904;2023-03-04T00:09:05;100418.66;;;-1.51;82.96
60489;BME280;46331;49.252;8.904;2023-03-04T00:09:46;100406.50;;;-1.51;82.62
60489;BME280;46331;49.252;8.904;2023-03-04T00:10:26;100416.91;;;-1.51;82.42
60489;BME280;46331;49.252;8.904;2023-03-04T00:11:07;100417.72;;;-1.50;82.48
60489;BME280;46331;49.252;8.904;2023-03-04T00:11:48;100409.53;;;-1.55;82.02
60489;BME280;46331;49.252;8.904;2023-03-04T00:12:28;100414.72;;;-1.55;82.00
60489;BME280;46331;49.252;8.904;2023-03-04T00:13:09;100418.44;;;-1.58;81.63
60489;BME280;46331;49.252;8.904;2023-03-04T00:13:50;100420.88;;;-1.56;82.32
60489;BME280;46331;49.252;8.904;2023-03-04T00:14:30;100420.06;;;-1.57;82.19
60489;BME280;46331;49.252;8.904;2023-03-04T00:15:11;100414.16;;;-1.59;82.26
60489;BME280;46331;49.252;8.904;2023-03-04T00:15:51;100422.97;;;-1.60;82.39
60489;BME280;46331;49.252;8.904;2023-03-04T00:16:32;100417.75;;;-1.60;81.60
60489;BME280;46331;49.252;8.904;2023-03-04T00:17:12;100412.00;;;-1.64;81.63
60489;BME280;46331;49.252;8.904;2023-03-04T00:17:53;100417.34;;;-1.65;82.04
60489;BME280;46331;49.252;8.904;2023-03-04T00:18:34;100419.13;;;-1.66;82.13
60489;BME280;46331;49.252;8.904;2023-03-04T00:19:14;100416.66;;;-1.67;81.75
60489;BME280;46331;49.252;8.904;2023-03-04T00:19:55;100421.88;;;-1.67;82.01
60489;BME280;46331;49.252;8.904;2023-03-04T00:20:35;100419.25;;;-1.67;82.51
60489;BME280;46331;49.252;8.904;2023-03-04T00:21:16;100420.06;;;-1.67;82.26
60489;BME280;46331;49.252;8.904;2023-03-04T00:21:56;100417.75;;;-1.70;82.56
60489;BME280;46331;49.252;8.904;2023-03-04T00:22:37;100417.75;;;-1.70;82.09
60489;BME280;46331;49.252;8.904;2023-03-04T00:23:18;100417.09;;;-1.72;82.51
60489;BME280;46331;49.252;8.904;2023-03-04T00:23:58;100423.09;;;-1.71;82.17
60489;BME280;46331;49.252;8.904;2023-03-04T00:24:39;100422.28;;;-1.72;82.33
60489;BME280;46331;49.252;8.904;2023-03-04T00:25:19;100418.03;;;-1.73;82.32
60489;BME280;46331;49.252;8.904;2023-03-04T00:26:00;100420.78;;;-1.74;82.57
60489;BME280;46331;49.252;8.904;2023-03-04T00:26:40;100425.97;;;-1.74;82.21
60489;BME280;46331;49.252;8.904;2023-03-04T00:27:21;100424.50;;;-1.77;82.05
60489;BME280;46331;49.252;8.904;2023-03-04T00:28:01;100424.50;;;-1.77;82.31
60489;BME280;46331;49.252;8.904;2023-03-04T00:28:42;100429.69;;;-1.77;82.48
60489;BME280;46331;49.252;8.904;2023-03-04T00:29:23;100417.78;;;-1.80;82.29
60489;BME280;46331;49.252;8.904;2023-03-04T00:30:05;100426.25;;;-1.77;82.31
60489;BME280;46331;49.252;8.904;2023-03-04T00:30:46;100427.91;;;-1.76;82.57
60489;BME280;46331;49.252;8.904;2023-03-04T00:31:26;100421.19;;;-1.79;82.32
60489;BME280;46331;49.252;8.904;2023-03-04T00:32:07;100421.34;;;-1.81;82.57
60489;BME280;46331;49.252;8.904;2023-03-04T00:32:47;100426.38;;;-1.79;82.60
60489;BME280;46331;49.252;8.904;2023-03-04T00:33:28;100425.72;;;-1.81;82.68
60489;BME280;46331;49.252;8.904;2023-03-04T00:34:08;100418.72;;;-1.81;82.92
60489;BME280;46331;49.252;8.904;2023-03-04T00:34:49;100424.06;;;-1.82;83.17
60489;BME280;46331;49.252;8.904;2023-03-04T00:35:29;100426.53;;;-1.81;83.12
60489;BME280;46331;49.252;8.904;2023-03-04T00:36:10;100422.16;;;-1.80;82.87
60489;BME280;46331;49.252;8.904;2023-03-04T00:36:50;100424.91;;;-1.82;83.16
60489;BME280;46331;49.252;8.904;2023-03-04T00:37:31;100419.56;;;-1.80;82.94
60489;BME280;46331;49.252;8.904;2023-03-04T00:38:12;100425.72;;;-1.81;82.89
60489;BME280;46331;49.252;8.904;2023-03-04T00:38:52;100423.94;;;-1.81;82.78
60489;BME280;46331;49.252;8.904;2023-03-04T00:39:33;100430.78;;;-1.80;82.98
60489;BME280;46331;49.252;8.904;2023-03-04T00:40:13;100418.72;;;-1.81;83.14
60489;BME280;46331;49.252;8.904;2023-03-04T00:40:54;100422.31;;;-1.82;83.29
60489;BME280;46331;49.252;8.904;2023-03-04T00:41:35;100429.13;;;-1.81;83.51
60489;BME280;46331;49.252;8.904;2023-03-04T00:42:16;100424.78;;;-1.80;83.09
60489;BME280;46331;49.252;8.904;2023-03-04T00:42:57;100425.59;;;-1.80;83.01
60489;BME280;46331;49.252;8.904;2023-03-04T00:43:37;100424.63;;;-1.78;83.18
60489;BME280;46331;49.252;8.904;2023-03-04T00:44:18;100427.22;;;-1.78;83.55
60489;BME280;46331;49.252;8.904;2023-03-04T00:44:58;100423.50;;;-1.76;83.63
60489;BME280;46331;49.252;8.904;2023-03-04T00:45:39;100419.97;;;-1.75;83.54
60489;BME280;46331;49.252;8.904;2023-03-04T00:46:19;100428.72;;;-1.66;83.92
60489;BME280;46331;49.252;8.904;2023-03-04T00:47:00;100418.31;;;-1.66;83.90
60489;BME280;46331;49.252;8.904;2023-03-04T00:47:41;100423.50;;;-1.66;83.25
60489;BME280;46331;49.252;8.904;2023-03-04T00:48:21;100422.53;;;-1.65;83.27
60489;BME280;46331;49.252;8.904;2023-03-04T00:49:02;100420.91;;;-1.66;83.37
60489;BME280;46331;49.252;8.904;2023-03-04T00:49:44;100416.94;;;-1.70;83.32
60489;BME280;46331;49.252;8.904;2023-03-04T00:50:24;100426.81;;;-1.74;83.32
60489;BME280;46331;49.252;8.904;2023-03-04T00:51:05;100420.91;;;-1.76;83.15
60489;BME280;46331;49.252;8.904;2023-03-04T00:51:45;100420.78;;;-1.74;83.19
60489;BME280;46331;49.252;8.904;2023-03-04T00:52:26;100418.19;;;-1.74;83.34
60489;BME280;46331;49.252;8.904;2023-03-04T00:53:06;100423.50;;;-1.76;82.93
60489;BME280;46331;49.252;8.904;2023-03-04T00:53:47;100425.31;;;-1.76;82.57
60489;BME280;46331;49.252;8.904;2023-03-04T00:54:27;100414.91;;;-1.76;82.97
60489;BME280;46331;49.252;8.904;2023-03-04T00:55:08;100426.13;;;-1.76;82.48
60489;BME280;46331;49.252;8.904;2023-03-04T00:55:49;100428.56;;;-1.74;82.38
60489;BME280;46331;49.252;8.904;2023-03-04T00:56:30;100425.97;;;-1.74;82.54
60489;BME280;46331;49.252;8.904;2023-03-04T00:57:10;100420.09;;;-1.76;82.38
60489;BME280;46331;49.252;8.904;2023-03-04T00:57:51;100426.25;;;-1.77;82.12
60489;BME280;46331;49.252;8.904;2023-03-04T00:58:31;100428.03;;;-1.78;82.27
60489;BME280;46331;49.252;8.904;2023-03-04T00:59:12;100426.53;;;-1.81;82.39
60489;BME280;46331;49.252;8.904;2023-03-04T00:59:53;100425.06;;;-1.83;82.82
60489;BME280;46331;49.252;8.904;2023-03-04T01:00:33;100430.38;;;-1.85;82.61
60489;BME280;46331;49.252;8.904;2023-03-04T01:01:14;100423.53;;;-1.86;82.68
60489;BME280;46331;49.252;8.904;2023-03-04T01:01:55;100426.41;;;-1.89;82.54
60489;BME280;46331;49.252;8.904;2023-03-04T01:02:35;100426.84;;;-1.93;82.14
60489;BME280;46331;49.252;8.904;2023-03-04T01:03:16;100427.91;;;-1.96;82.13
60489;BME280;46331;49.252;8.904;2023-03-04T01:03:56;100425.47;;;-1.98;82.46
60489;BME280;46331;49.252;8.904;2023-03-04T01:04:37;100422.03;;;-1.98;82.71
60489;BME280;46331;49.252;8.904;2023-03-04T01:05:18;100429.16;;;-2.00;82.48
60489;BME280;46331;49.252;8.904;2023-03-04T01:05:58;100423.28;;;-2.02;82.40
60489;BME280;46331;49.252;8.904;2023-03-04T01:06:39;100430.41;;;-2.04;82.27
60489;BME280;46331;49.252;8.904;2023-03-04T01:07:19;100428.47;;;-2.02;83.01
60489;BME280;46331;49.252;8.904;2023-03-04T01:08:01;100422.03;;;-1.98;83.03
60489;BME280;46331;49.252;8.904;2023-03-04T01:08:42;100428.47;;;-1.92;83.40
60489;BME280;46331;49.252;8.904;2023-03-04T01:09:22;100423.94;;;-1.90;83.12
60489;BME280;46331;49.252;8.904;2023-03-04T01:10:05;100419.44;;;-1.88;83.15
60489;BME280;46331;49.252;8.904;2023-03-04T01:10:46;100421.06;;;-1.87;82.83
60489;BME280;46331;49.252;8.904;2023-03-04T01:11:27;100416.81;;;-1.88;82.37
60489;BME280;46331;49.252;8.904;2023-03-04T01:12:08;100415.34;;;-1.91;82.23
60489;BME280;46331;49.252;8.904;2023-03-04T01:12:48;100415.47;;;-1.92;82.50
60489;BME280;46331;49.252;8.904;2023-03-04T01:13:29;100423.41;;;-1.94;82.10
60489;BME280;46331;49.252;8.904;2023-03-04T01:14:09;100422.72;;;-1.96;82.18
60489;BME280;46331;49.252;8.904;2023-03-04T01:14:50;100422.84;;;-1.98;82.25
60489;BME280;46331;49.252;8.904;2023-03-04T01:15:31;100419.44;;;-1.98;82.26
60489;BME280;46331;49.252;8.904;2023-03-04T01:16:11;100425.31;;;-1.96;82.19
60489;BME280;46331;49.252;8.904;2023-03-04T01:16:52;100421.78;;;-1.95;82.55
60489;BME280;46331;49.252;8.904;2023-03-04T01:17:33;100426.97;;;-1.95;82.33
60489;BME280;46331;49.252;8.904;2023-03-04T01:18:13;100422.84;;;-1.98;82.23
60489;BME280;46331;49.252;8.904;2023-03-04T01:18:55;100427.25;;;-1.98;83.01
60489;BME280;46331;49.252;8.904;2023-03-04T01:19:35;100424.50;;;-1.96;82.41
60489;BME280;46331;49.252;8.904;2023-03-04T01:20:16;100427.09;;;-1.96;82.57
60489;BME280;46331;49.252;8.904;2023-03-04T01:20:57;100427.91;;;-1.96;82.47
60489;BME280;46331;49.252;8.904;2023-03-04T01:21:37;100426.16;;;-1.95;82.92
60489;BME280;46331;49.252;8.904;2023-03-04T01:22:18;100420.53;;;-1.91;83.05
60489;BME280;46331;49.252;8.904;2023-03-04T01:22:59;100421.22;;;-1.89;82.88
60489;BME280;46331;49.252;8.904;2023-03-04T01:23:39;100425.59;;;-1.89;82.49
60489;BME280;46331;49.252;8.904;2023-03-04T01:24:21;100420.53;;;-1.91;82.55
60489;BME280;46331;49.252;8.904;2023-03-04T01:25:03;100419.56;;;-1.90;82.54
60489;BME280;46331;49.252;8.904;2023-03-04T01:25:43;100417.25;;;-1.93;82.09
60489;BME280;46331;49.252;8.904;2023-03-04T01:26:24;100420.81;;;-1.94;82.51
60489;BME280;46331;49.252;8.904;2023-03-04T01:27:05;100418.22;;;-1.94;83.13
60489;BME280;46331;49.252;8.904;2023-03-04T01:27:45;100410.56;;;-1.95;82.53
60489;BME280;46331;49.252;8.904;2023-03-04T01:28:26;100416.56;;;-1.95;82.96
60489;BME280;46331;49.252;8.904;2023-03-04T01:29:06;100415.63;;;-1.94;82.82
60489;BME280;46331;49.252;8.904;2023-03-04T01:29:47;100414.78;;;-1.94;82.63
60489;BME280;46331;49.252;8.904;2023-03-04T01:30:27;100421.78;;;-1.95;82.39
60489;BME280;46331;49.252;8.904;2023-03-04T01:31:09;100421.91;;;-1.96;82.25
60489;BME280;46331;49.252;8.904;2023-03-04T01:31:50;100414.91;;;-1.96;82.68
60489;BME280;46331;49.252;8.904;2023-03-04T01:32:31;100416.72;;;-1.96;82.46
60489;BME280;46331;49.252;8.904;2023-03-04T01:33:11;100418.22;;;-1.94;82.83
60489;BME280;46331;49.252;8.904;2023-03-04T01:33:52;100415.34;;;-1.91;82.33
60489;BME280;46331;49.252;8.904;2023-03-04T01:34:32;100416.97;;;-1.90;82.17
60489;BME280;46331;49.252;8.904;2023-03-04T01:35:13;100416.97;;;-1.90;82.59
60489;BME280;46331;49.252;8.904;2023-03-04T01:35:54;100421.34;;;-1.90;82.45
60489;BME280;46331;49.252;8.904;2023-03-04T01:36:34;100412.03;;;-1.93;82.60
60489;BME280;46331;49.252;8.904;2023-03-04T01:37:15;100408.63;;;-1.93;82.81
60489;BME280;46331;49.252;8.904;2023-03-04T01:37:55;100412.03;;;-1.93;82.55
60489;BME280;46331;49.252;8.904;2023-03-04T01:38:36;100415.63;;;-1.94;82.49
60489;BME280;46331;49.252;8.904;2023-03-04T01:39:16;100414.50;;;-1.91;82.81
60489;BME280;46331;49.252;8.904;2023-03-04T01:39:57;100418.63;;;-1.89;82.59
60489;BME280;46331;49.252;8.904;2023-03-04T01:40:38;100416.03;;;-1.89;82.59
60489;BME280;46331;49.252;8.904;2023-03-04T01:41:22;100416.69;;;-1.87;82.46
60489;BME280;46331;49.252;8.904;2023-03-04T01:42:04;100413.41;;;-1.89;81.67
60489;BME280;46331;49.252;8.904;2023-03-04T01:42:45;100408.50;;;-1.92;82.01
60489;BME280;46331;49.252;8.904;2023-03-04T01:43:27;100405.22;;;-1.94;82.02
60489;BME280;46331;49.252;8.904;2023-03-04T01:44:10;100403.56;;;-1.95;81.92
60489;BME280;46331;49.252;8.904;2023-03-04T01:44:51;100402.75;;;-1.95;82.18
60489;BME280;46331;49.252;8.904;2023-03-04T01:45:33;100408.38;;;-2.00;82.05
60489;BME280;46331;49.252;8.904;2023-03-04T01:46:14;100406.88;;;-2.03;82.00
60489;BME280;46331;49.252;8.904;2023-03-04T01:46:56;100411.66;;;-2.08;82.05
60489;BME280;46331;49.252;8.904;2023-03-04T01:47:38;100408.50;;;-2.11;82.44
60489;BME280;46331;49.252;8.904;2023-03-04T01:48:24;100405.38;;;-2.15;82.70
60489;BME280;46331;49.252;8.904;2023-03-04T01:49:05;100398.94;;;-2.21;82.73
60489;BME280;46331;49.252;8.904;2023-03-04T01:49:53;100399.22;;;-2.24;83.16
60489;BME280;46331;49.252;8.904;2023-03-04T01:50:34;100396.88;;;-2.27;83.01
60489;BME280;46331;49.252;8.904;2023-03-04T01:51:17;100398.81;;;-2.29;83.14
60489;BME280;46331;49.252;8.904;2023-03-04T01:51:58;100395.66;;;-2.32;83.12
60489;BME280;46331;49.252;8.904;2023-03-04T01:52:40;100395.81;;;-2.34;82.85
60489;BME280;46331;49.252;8.904;2023-03-04T01:53:24;100400.31;;;-2.36;83.56
60489;BME280;46331;49.252;8.904;2023-03-04T01:54:05;100398.69;;;-2.37;83.36
60489;BME280;46331;49.252;8.904;2023-03-04T01:54:46;100398.81;;;-2.39;83.49
60489;BME280;46331;49.252;8.904;2023-03-04T01:55:29;100392.78;;;-2.39;83.60
60489;BME280;46331;49.252;8.904;2023-03-04T01:56:34;100393.91;;;-2.42;83.18
60489;BME280;46331;49.252;8.904;2023-03-04T01:57:18;100395.09;;;-2.46;82.66
60489;BME280;46331;49.252;8.904;2023-03-04T01:57:59;100390.19;;;-2.49;83.26
60489;BME280;46331;49.252;8.904;2023-03-04T01:58:40;100392.25;;;-2.53;83.60
60489;BME280;46331;49.252;8.904;2023-03-04T01:59:24;100392.25;;;-2.53;83.72
60489;BME280;46331;49.252;8.904;2023-03-04T02:01:00;100393.19;;;-2.54;83.37
60489;BME280;46331;49.252;8.904;2023-03-04T02:01:46;100395.91;;;-2.55;83.96
60489;BME280;46331;49.252;8.904;2023-03-04T02:02:27;100387.31;;;-2.56;84.05
60489;BME280;46331;49.252;8.904;2023-03-04T02:03:12;100390.06;;;-2.57;83.93
60489;BME280;46331;49.252;8.904;2023-03-04T02:03:54;100390.19;;;-2.59;84.12
60489;BME280;46331;49.252;8.904;2023-03-04T02:04:34;100398.13;;;-2.60;84.25
60489;BME280;46331;49.252;8.904;2023-03-04T02:05:15;100398.13;;;-2.60;84.13
60489;BME280;46331;49.252;8.904;2023-03-04T02:05:56;100388.09;;;-2.65;84.43
60489;BME280;46331;49.252;8.904;2023-03-04T02:06:38;100387.16;;;-2.64;84.37
60489;BME280;46331;49.252;8.904;2023-03-04T02:07:20;100391.94;;;-2.69;84.65
60489;BME280;46331;49.252;8.904;2023-03-04T02:08:02;100388.50;;;-2.70;83.81
60489;BME280;46331;49.252;8.904;2023-03-04T02:08:43;100385.09;;;-2.70;82.73
60489;BME280;46331;49.252;8.904;2023-03-04T02:09:23;100387.00;;;-2.72;83.64
60489;BME280;46331;49.252;8.904;2023-03-04T02:10:04;100394.81;;;-2.72;83.70
60489;BME280;46331;49.252;8.904;2023-03-04T02:10:46;100386.31;;;-2.74;84.14
60489;BME280;46331;49.252;8.904;2023-03-04T02:11:27;100388.38;;;-2.78;84.00
60489;BME280;46331;49.252;8.904;2023-03-04T02:12:08;100392.75;;;-2.78;83.71
60489;BME280;46331;49.252;8.904;2023-03-04T02:12:49;100389.56;;;-2.82;83.32
60489;BME280;46331;49.252;8.904;2023-03-04T02:13:30;100380.16;;;-2.83;83.08
60489;BME280;46331;49.252;8.904;2023-03-04T02:14:14;100381.91;;;-2.83;84.20
60489;BME280;46331;49.252;8.904;2023-03-04T02:14:55;100387.13;;;-2.83;84.38
60489;BME280;46331;49.252;8.904;2023-03-04T02:15:36;100382.19;;;-2.87;84.44
60489;BME280;46331;49.252;8.904;2023-03-04T02:16:17;100377.00;;;-2.87;84.44
60489;BME280;46331;49.252;8.904;2023-03-04T02:16:58;100381.09;;;-2.84;85.52
60489;BME280;46331;49.252;8.904;2023-03-04T02:17:38;100381.91;;;-2.83;85.90
60489;BME280;46331;49.252;8.904;2023-03-04T02:18:23;100381.66;;;-2.80;86.14
60489;BME280;46331;49.252;8.904;2023-03-04T02:19:13;100387.28;;;-2.75;86.28
60489;BME280;46331;49.252;8.904;2023-03-04T02:20:06;100382.91;;;-2.75;85.53
60489;BME280;46331;49.252;8.904;2023-03-04T02:21:45;100390.69;;;-2.75;85.07
60489;BME280;46331;49.252;8.904;2023-03-04T02:22:26;100385.50;;;-2.75;84.50
60489;BME280;46331;49.252;8.904;2023-03-04T02:23:09;100387.41;;;-2.77;84.06
60489;BME280;46331;49.252;8.904;2023-03-04T02:24:56;100383.56;;;-2.82;84.11
60489;BME280;46331;49.252;8.904;2023-03-04T02:25:51;100380.31;;;-2.84;83.80
60489;BME280;46331;49.252;8.904;2023-03-04T02:26:34;100387.25;;;-2.85;83.97
60489;BME280;46331;49.252;8.904;2023-03-04T02:27:15;100381.38;;;-2.87;84.13
60489;BME280;46331;49.252;8.904;2023-03-04T02:27:56;100384.09;;;-2.89;84.07
60489;BME280;46331;49.252;8.904;2023-03-04T02:28:36;100394.50;;;-2.89;84.22
60489;BME280;46331;49.252;8.904;2023-03-04T02:29:17;100394.63;;;-2.90;84.40
60489;BME280;46331;49.252;8.904;2023-03-04T02:29:58;100384.09;;;-2.89;84.54
60489;BME280;46331;49.252;8.904;2023-03-04T02:30:41;100390.94;;;-2.88;84.64
60489;BME280;46331;49.252;8.904;2023-03-04T02:32:12;100384.09;;;-2.89;84.21
60489;BME280;46331;49.252;8.904;2023-03-04T02:32:53;100382.47;;;-2.90;83.76
60489;BME280;46331;49.252;8.904;2023-03-04T02:33:34;100394.50;;;-2.89;83.89
60489;BME280;46331;49.252;8.904;2023-03-04T02:34:17;100384.09;;;-2.89;83.74
60489;BME280;46331;49.252;8.904;2023-03-04T02:34:58;100390.25;;;-2.90;84.24
60489;BME280;46331;49.252;8.904;2023-03-04T02:35:38;100394.50;;;-2.89;84.00
60489;BME280;46331;49.252;8.904;2023-03-04T02:36:19;100387.66;;;-2.90;83.73
60489;BME280;46331;49.252;8.904;2023-03-04T02:37:01;100393.81;;;-2.91;83.72
60489;BME280;46331;49.252;8.904;2023-03-04T02:37:44;100382.47;;;-2.90;84.17
60489;BME280;46331;49.252;8.904;2023-03-04T02:38:24;100389.44;;;-2.90;83.73
60489;BME280;46331;49.252;8.904;2023-03-04T02:40:01;100386.84;;;-2.90;83.82
60489;BME280;46331;49.252;8.904;2023-03-04T02:40:45;100379.19;;;-2.92;83.90
60489;BME280;46331;49.252;8.904;2023-03-04T02:41:29;100388.88;;;-2.94;83.84
60489;BME280;46331;49.252;8.904;2023-03-04T02:42:11;100386.28;;;-2.94;84.12
60489;BME280;46331;49.252;8.904;2023-03-04T02:42:51;100385.31;;;-2.93;84.23
60489;BME280;46331;49.252;8.904;2023-03-04T02:43:32;100383.56;;;-2.92;84.17
60489;BME280;46331;49.252;8.904;2023-03-04T02:44:29;100380.97;;;-2.92;84.10
60489;BME280;46331;49.252;8.904;2023-03-04T02:45:30;100376.19;;;-2.97;84.25
60489;BME280;46331;49.252;8.904;2023-03-04T02:46:14;100386.69;;;-2.98;84.46
60489;BME280;46331;49.252;8.904;2023-03-04T02:46:56;100390.09;;;-2.98;84.39
60489;BME280;46331;49.252;8.904;2023-03-04T02:47:38;100384.91;;;-2.98;84.32
60489;BME280;46331;49.252;8.904;2023-03-04T02:48:21;100376.19;;;-2.97;84.07
60489;BME280;46331;49.252;8.904;2023-03-04T02:49:03;100386.41;;;-2.95;83.88
60489;BME280;46331;49.252;8.904;2023-03-04T02:49:44;100383.13;;;-2.97;83.96
60489;BME280;46331;49.252;8.904;2023-03-04T02:50:28;100389.16;;;-2.97;83.94
60489;BME280;46331;49.252;8.904;2023-03-04T02:51:09;100384.09;;;-2.98;84.32
60489;BME280;46331;49.252;8.904;2023-03-04T02:51:51;100394.47;;;-2.98;84.12
60489;BME280;46331;49.252;8.904;2023-03-04T02:52:32;100391.63;;;-2.95;84.31
60489;BME280;46331;49.252;8.904;2023-03-04T02:53:13;100379.31;;;-2.93;83.97
60489;BME280;46331;49.252;8.904;2023-03-04T02:53:54;100393.09;;;-2.93;83.95
60489;BME280;46331;49.252;8.904;2023-03-04T02:54:37;100389.69;;;-2.93;84.16
60489;BME280;46331;49.252;8.904;2023-03-04T02:55:17;100386.41;;;-2.95;83.65
60489;BME280;46331;49.252;8.904;2023-03-04T02:55:58;100386.28;;;-2.94;83.75
60489;BME280;46331;49.252;8.904;2023-03-04T02:56:47;100393.09;;;-2.93;83.79
60489;BME280;46331;49.252;8.904;2023-03-04T02:57:28;100381.91;;;-2.93;83.28
60489;BME280;46331;49.252;8.904;2023-03-04T02:58:09;100382.84;;;-2.94;83.10
60489;BME280;46331;49.252;8.904;2023-03-04T02:58:50;100383.00;;;-2.96;83.05
60489;BME280;46331;49.252;8.904;2023-03-04T02:59:31;100390.09;;;-2.98;82.78
60489;BME280;46331;49.252;8.904;2023-03-04T03:00:12;100395.28;;;-2.98;82.96
60489;BME280;46331;49.252;8.904;2023-03-04T03:00:54;100390.91;;;-2.97;83.46
60489;BME280;46331;49.252;8.904;2023-03-04T03:01:35;100383.25;;;-2.99;83.91
60489;BME280;46331;49.252;8.904;2023-03-04T03:02:15;100386.28;;;-2.94;84.22
60489;BME280;46331;49.252;8.904;2023-03-04T03:02:56;100391.34;;;-2.92;84.11
60489;BME280;46331;49.252;8.904;2023-03-04T03:03:36;100389.28;;;-2.89;83.99
60489;BME280;46331;49.252;8.904;2023-03-04T03:04:19;100388.91;;;-2.84;83.55
60489;BME280;46331;49.252;8.904;2023-03-04T03:05:00;100385.22;;;-2.81;84.36
60489;BME280;46331;49.252;8.904;2023-03-04T03:05:41;100379.75;;;-2.78;83.83
60489;BME280;46331;49.252;8.904;2023-03-04T03:06:22;100386.03;;;-2.81;82.71
60489;BME280;46331;49.252;8.904;2023-03-04T03:07:03;100378.25;;;-2.81;83.20
60489;BME280;46331;49.252;8.904;2023-03-04T03:07:44;100387.81;;;-2.81;82.73
60489;BME280;46331;49.252;8.904;2023-03-04T03:08:25;100387.13;;;-2.83;83.17
60489;BME280;46331;49.252;8.904;2023-03-04T03:09:06;100383.84;;;-2.85;82.46
60489;BME280;46331;49.252;8.904;2023-03-04T03:09:47;100383.16;;;-2.88;82.88
60489;BME280;46331;49.252;8.904;2023-03-04T03:10:27;100384.09;;;-2.89;82.99
60489;BME280;46331;49.252;8.904;2023-03-04T03:11:08;100381.66;;;-2.90;83.01
60489;BME280;46331;49.252;8.904;2023-03-04T03:11:50;100382.59;;;-2.91;82.97
60489;BME280;46331;49.252;8.904;2023-03-04T03:12:30;100380.84;;;-2.91;83.71
60489;BME280;46331;49.252;8.904;2023-03-04T03:13:11;100382.19;;;-2.87;83.61
60489;BME280;46331;49.252;8.904;2023-03-04T03:13:52;100381.91;;;-2.83;83.74
60489;BME280;46331;49.252;8.904;2023-03-04T03:14:33;100375.78;;;-2.82;82.87
60489;BME280;46331;49.252;8.904;2023-03-04T03:15:14;100375.66;;;-2.81;83.31
60489;BME280;46331;49.252;8.904;2023-03-04T03:15:55;100376.47;;;-2.80;82.99
60489;BME280;46331;49.252;8.904;2023-03-04T03:16:37;100377.31;;;-2.80;82.84
60489;BME280;46331;49.252;8.904;2023-03-04T03:17:18;100374.84;;;-2.81;82.72
60489;BME280;46331;49.252;8.904;2023-03-04T03:18:00;100374.97;;;-2.83;82.69
60489;BME280;46331;49.252;8.904;2023-03-04T03:18:41;100372.66;;;-2.86;82.79
60489;BME280;46331;49.252;8.904;2023-03-04T03:19:21;100374.41;;;-2.87;82.45
60489;BME280;46331;49.252;8.904;2023-03-04T03:20:02;100377.72;;;-2.84;82.71
60489;BME280;46331;49.252;8.904;2023-03-04T03:20:43;100375.91;;;-2.84;82.97
60489;BME280;46331;49.252;8.904;2023-03-04T03:21:24;100363.06;;;-2.85;82.70
60489;BME280;46331;49.252;8.904;2023-03-04T03:22:05;100372.50;;;-2.84;82.86
60489;BME280;46331;49.252;8.904;2023-03-04T03:22:46;100376.72;;;-2.83;82.54
60489;BME280;46331;49.252;8.904;2023-03-04T03:23:26;100370.72;;;-2.84;82.61
60489;BME280;46331;49.252;8.904;2023-03-04T03:24:07;100375.66;;;-2.81;82.40
60489;BME280;46331;49.252;8.904;2023-03-04T03:24:47;100378.25;;;-2.81;82.25
60489;BME280;46331;49.252;8.904;2023-03-04T03:25:28;100376.72;;;-2.83;82.41
60489;BME280;46331;49.252;8.904;2023-03-04T03:26:09;100375.09;;;-2.84;82.33
60489;BME280;46331;49.252;8.904;2023-03-04T03:26:49;100374.41;;;-2.87;82.98
60489;BME280;46331;49.252;8.904;2023-03-04T03:27:30;100379.47;;;-2.85;82.62
60489;BME280;46331;49.252;8.904;2023-03-04T03:28:10;100370.19;;;-2.88;82.72
60489;BME280;46331;49.252;8.904;2023-03-04T03:28:51;100378.66;;;-2.85;82.16
60489;BME280;46331;49.252;8.904;2023-03-04T03:29:32;100372.50;;;-2.84;82.76
60489;BME280;46331;49.252;8.904;2023-03-04T03:30:14;100368.41;;;-2.87;82.80
60489;BME280;46331;49.252;8.904;2023-03-04T03:30:55;100372.50;;;-2.84;83.55
60489;BME280;46331;49.252;8.904;2023-03-04T03:31:36;100374.97;;;-2.83;83.14
60489;BME280;46331;49.252;8.904;2023-03-04T03:32:17;100374.84;;;-2.81;82.69
60489;BME280;46331;49.252;8.904;2023-03-04T03:32:57;100380.97;;;-2.82;82.83
60489;BME280;46331;49.252;8.904;2023-03-04T03:33:38;100366.34;;;-2.83;82.79
60489;BME280;46331;49.252;8.904;2023-03-04T03:34:19;100369.78;;;-2.83;83.13
60489;BME280;46331;49.252;8.904;2023-03-04T03:35:01;100368.13;;;-2.84;83.71
60489;BME280;46331;49.252;8.904;2023-03-04T03:35:42;100373.19;;;-2.82;83.25
60489;BME280;46331;49.252;8.904;2023-03-04T03:36:23;100372.25;;;-2.81;83.23
60489;BME280;46331;49.252;8.904;2023-03-04T03:37:03;100376.72;;;-2.83;82.38
60489;BME280;46331;49.252;8.904;2023-03-04T03:37:44;100372.78;;;-2.88;82.10
60489;BME280;46331;49.252;8.904;2023-03-04T03:38:25;100378.09;;;-2.89;81.62
60489;BME280;46331;49.252;8.904;2023-03-04T03:39:05;100369.63;;;-2.91;82.28
60489;BME280;46331;49.252;8.904;2023-03-04T03:39:46;100369.19;;;-2.96;81.74
60489;BME280;46331;49.252;8.904;2023-03-04T03:40:26;100376.84;;;-2.95;82.05
60489;BME280;46331;49.252;8.904;2023-03-04T03:41:07;100374.25;;;-2.95;82.66